Time;durP1;ratioP1;P1;durP2;ratioP2;P2;SDS_P1;SDS_P2;PMS_P1;PMS_P2;Temp;Humidity;BMP_temperature;BMP_pressure;BME280_temperature;BME280_humidity;BME280_pressure;Samples;Min_cycle;Max_cycle;Signal;HPM_P1;HPM_P2
2022/05/12 07:18:38;;;;;;;6.13;4.75;;;13.60;99.90;;;;;;5091115;27;20558;-75
2022/05/12 07:26:35;;;;;;;7.22;4.88;;;13.80;99.90;;;;;;5091005;28;20171;-75
2022/05/12 07:29:06;;;;;;;5.65;3.97;;;13.70;99.90;;;;;;5091027;28;20175;-75
2022/05/12 07:31:32;;;;;;;5.93;3.78;;;13.70;99.90;;;;;;5090795;28;20176;-75
2022/05/12 07:33:58;;;;;;;7.78;3.80;;;13.60;99.90;;;;;;5090949;28;20254;-75
2022/05/12 07:36:36;;;;;;;3.80;3.50;;;13.60;99.90;;;;;;5089678;28;20263;-75
2022/05/12 07:39:03;;;;;;;5.85;4.40;;;13.60;99.90;;;;;;5089797;28;20225;-75
2022/05/12 07:41:29;;;;;;;5.35;3.95;;;13.70;99.90;;;;;;5090698;28;20164;-75
2022/05/12 07:43:55;;;;;;;6.63;4.50;;;13.70;99.90;;;;;;5090751;28;20225;-75
2022/05/12 07:46:24;;;;;;;6.00;4.60;;;13.70;99.90;;;;;;5090740;28;20656;-76
2022/05/12 07:48:50;;;;;;;10.35;4.57;;;13.80;99.90;;;;;;5090688;28;20733;-75
2022/05/12 07:51:17;;;;;;;8.00;4.85;;;13.70;99.90;;;;;;5090778;28;20235;-75
2022/05/12 07:53:47;;;;;;;4.78;4.30;;;13.70;99.90;;;;;;5089498;28;20168;-75
2022/05/12 07:56:18;;;;;;;5.95;4.07;;;13.70;99.90;;;;;;5090028;28;20171;-75
2022/05/12 07:58:44;;;;;;;8.38;3.75;;;13.80;99.90;;;;;;5090324;28;20168;-76
2022/05/12 08:01:12;;;;;;;3.42;2.72;;;13.70;99.90;;;;;;5090083;28;20184;-75
2022/05/12 08:03:39;;;;;;;6.63;3.63;;;13.70;99.90;;;;;;5090286;28;20498;-76
2022/05/12 08:06:05;;;;;;;4.78;3.45;;;13.80;99.90;;;;;;5090144;28;20167;-75
2022/05/12 08:08:31;;;;;;;4.10;3.33;;;13.90;99.90;;;;;;5089288;28;20547;-76
2022/05/12 08:10:57;;;;;;;2.95;2.75;;;13.90;99.90;;;;;;5090316;28;20317;-76
2022/05/12 08:13:23;;;;;;;3.67;3.35;;;13.90;99.90;;;;;;5090244;28;20620;-75
2022/05/12 08:15:50;;;;;;;6.80;3.53;;;14.00;99.90;;;;;;5090055;28;20172;-76
2022/05/12 08:18:21;;;;;;;8.43;2.90;;;14.10;99.90;;;;;;5090073;28;20708;-76
2022/05/12 08:20:47;;;;;;;6.80;2.95;;;14.10;99.90;;;;;;5090291;28;20175;-76
2022/05/12 08:23:14;;;;;;;5.00;2.80;;;14.20;99.90;;;;;;5088800;28;20190;-76
2022/05/12 08:25:40;;;;;;;4.80;3.00;;;14.20;99.90;;;;;;5089954;28;20234;-76
2022/05/12 08:28:06;;;;;;;6.30;3.15;;;14.30;99.90;;;;;;5087044;28;20165;-76
2022/05/12 08:30:33;;;;;;;4.85;2.90;;;14.70;99.90;;;;;;5076485;28;20219;-75
2022/05/12 08:32:59;;;;;;;4.93;3.65;;;14.90;99.90;;;;;;5076183;28;20181;-76
2022/05/12 08:35:26;;;;;;;3.80;2.67;;;15.00;99.90;;;;;;5074934;28;20192;-75
2022/05/12 08:37:52;;;;;;;3.72;2.80;;;15.00;99.90;;;;;;5076058;28;20211;-76
2022/05/12 08:40:29;;;;;;;3.72;2.92;;;14.90;99.90;;;;;;5076107;28;20637;-76
2022/05/12 08:42:56;;;;;;;3.05;2.63;;;14.90;99.90;;;;;;5075015;28;20175;-76
2022/05/12 08:45:23;;;;;;;8.80;3.40;;;15.00;99.90;;;;;;5076251;28;20270;-76
2022/05/12 08:47:50;;;;;;;5.43;2.92;;;15.10;99.90;;;;;;5076003;28;20689;-75
2022/05/12 08:50:28;;;;;;;3.72;2.83;;;15.20;99.90;;;;;;5076025;28;20187;-75
2022/05/12 08:53:05;;;;;;;5.78;2.80;;;15.30;99.90;;;;;;5075955;28;20174;-75
2022/05/12 08:55:44;;;;;;;7.55;3.42;;;15.20;99.90;;;;;;5075809;28;20656;-75
2022/05/12 08:58:35;;;;;;;2.67;2.53;;;15.30;99.90;;;;;;5075779;28;20649;-75
2022/05/12 09:01:25;;;;;;;5.72;3.13;;;15.40;99.90;;;;;;5075440;28;20283;-75
2022/05/12 09:04:20;;;;;;;4.47;3.30;;;15.60;99.90;;;;;;5075917;28;20173;-75
2022/05/12 09:07:09;;;;;;;6.25;3.22;;;15.50;99.90;;;;;;5074689;28;20259;-75
2022/05/12 09:09:59;;;;;;;5.60;3.40;;;15.60;99.90;;;;;;5074538;28;20242;-75
2022/05/12 09:13:02;;;;;;;5.05;3.13;;;15.70;99.90;;;;;;5074492;28;20190;-75
2022/05/12 09:15:36;;;;;;;4.20;3.67;;;15.80;99.90;;;;;;5074416;28;20179;-75
2022/05/12 09:18:10;;;;;;;5.97;4.18;;;15.80;99.90;;;;;;5074238;28;20255;-75
2022/05/12 09:20:36;;;;;;;6.63;3.95;;;15.80;99.90;;;;;;5075601;28;20164;-75
2022/05/12 09:23:03;;;;;;;7.47;3.67;;;15.80;99.90;;;;;;5075389;28;20679;-75
2022/05/12 09:25:33;;;;;;;8.00;3.28;;;15.80;99.90;;;;;;5075482;28;20156;-76
2022/05/12 09:27:58;;;;;;;6.13;3.58;;;15.90;99.90;;;;;;5073985;28;20172;-75
2022/05/12 09:30:36;;;;;;;3.42;3.10;;;16.10;99.90;;;;;;5074641;28;20172;-76
2022/05/12 09:33:03;;;;;;;8.20;3.80;;;16.20;99.90;;;;;;5074730;28;20246;-76
2022/05/12 09:35:31;;;;;;;5.55;3.38;;;16.10;99.90;;;;;;5075149;28;20168;-76
2022/05/12 09:37:57;;;;;;;2.88;2.67;;;16.10;99.90;;;;;;5073657;28;20200;-76
2022/05/12 09:40:35;;;;;;;4.28;3.00;;;16.00;99.90;;;;;;5073953;28;20164;-76
2022/05/12 09:43:25;;;;;;;3.63;2.90;;;15.90;99.90;;;;;;5075102;28;20168;-76
2022/05/12 09:46:22;;;;;;;3.65;2.95;;;15.90;99.90;;;;;;5074397;28;20242;-75
2022/05/12 09:48:49;;;;;;;5.25;3.67;;;15.80;99.90;;;;;;5074933;28;20661;-76
2022/05/12 09:51:32;;;;;;;3.42;3.22;;;15.70;99.90;;;;;;5074909;28;20179;-76
2022/05/12 09:54:23;;;;;;;5.22;2.90;;;15.60;99.90;;;;;;5074768;28;20273;-76
2022/05/12 09:57:14;;;;;;;5.75;3.00;;;15.60;99.90;;;;;;5074707;28;20276;-76
2022/05/12 09:59:42;;;;;;;6.88;3.20;;;16.00;99.90;;;;;;5074471;28;20218;-76
2022/05/12 10:08:20;;;;;;;7.10;3.22;;;16.40;99.90;;;;;;5074465;28;20247;-76
2022/05/12 10:10:53;;;;;;;5.30;3.22;;;16.60;99.90;;;;;;5074401;28;20636;-76
2022/05/12 10:13:37;;;;;;;4.82;2.88;;;16.70;99.90;;;;;;5074348;28;20161;-76
2022/05/12 10:16:04;;;;;;;4.47;3.30;;;17.00;99.90;;;;;;5074515;28;20165;-76
2022/05/12 10:18:34;;;;;;;3.40;3.03;;;17.20;99.90;;;;;;5074730;28;20735;-76
2022/05/12 10:21:23;;;;;;;5.03;3.47;;;17.10;99.90;;;;;;5074253;28;20251;-76
2022/05/12 10:24:07;;;;;;;6.50;3.58;;;17.10;99.90;;;;;;5073880;28;20184;-76
2022/05/12 10:26:48;;;;;;;3.88;3.58;;;17.10;99.90;;;;;;5073697;28;20184;-76
2022/05/12 10:29:44;;;;;;;5.88;3.40;;;17.00;99.90;;;;;;5073753;28;20159;-76
2022/05/12 10:32:26;;;;;;;3.00;2.80;;;17.10;99.90;;;;;;5073518;28;20172;-76
2022/05/12 10:35:00;;;;;;;5.10;2.85;;;17.30;99.90;;;;;;5072420;28;20168;-76
2022/05/12 10:37:37;;;;;;;3.50;3.10;;;17.30;99.90;;;;;;5073702;28;20523;-76
2022/05/12 10:40:25;;;;;;;5.15;2.30;;;17.50;99.90;;;;;;5072375;28;20258;-76
2022/05/12 10:42:57;;;;;;;3.80;2.90;;;17.60;99.90;;;;;;5072380;28;20176;-76
2022/05/12 10:45:34;;;;;;;3.85;2.67;;;17.50;99.90;;;;;;5073527;28;20160;-76
2022/05/12 10:48:14;;;;;;;4.25;3.08;;;17.50;99.90;;;;;;5073625;28;20172;-76
2022/05/12 10:50:56;;;;;;;5.55;3.17;;;17.40;99.90;;;;;;5073524;28;20168;-76
2022/05/12 10:53:24;;;;;;;3.97;2.88;;;17.40;99.90;;;;;;5073349;28;20196;-76
2022/05/12 10:55:58;;;;;;;4.03;3.72;;;17.30;99.90;;;;;;5072237;28;20198;-76
2022/05/12 10:59:00;;;;;;;7.43;3.40;;;17.30;99.90;;;;;;5073395;28;20669;-76
2022/05/12 11:01:40;;;;;;;4.47;2.92;;;17.30;99.90;;;;;;5072146;28;20258;-76
2022/05/12 11:04:11;;;;;;;5.18;2.90;;;17.60;99.90;;;;;;5073371;28;20160;-76
2022/05/12 11:06:41;;;;;;;5.18;2.67;;;17.70;99.90;;;;;;5073368;28;20618;-76
2022/05/12 11:09:19;;;;;;;3.63;2.20;;;17.80;99.90;;;;;;5072078;28;20544;-76
2022/05/12 11:11:50;;;;;;;2.35;2.10;;;17.90;99.90;;;;;;5073302;28;20731;-76
2022/05/12 11:14:25;;;;;;;2.78;2.28;;;18.00;99.90;;;;;;5073316;28;20637;-76
2022/05/12 11:17:05;;;;;;;5.03;2.53;;;18.20;99.90;;;;;;5073036;28;20328;-76
2022/05/12 11:19:30;;;;;;;4.47;3.38;;;18.10;99.90;;;;;;5073223;28;20167;-76
2022/05/12 11:22:40;;;;;;;3.83;2.50;;;18.20;99.90;;;;;;5073135;28;20159;-76
2022/05/12 11:25:33;;;;;;;5.13;2.30;;;18.40;99.90;;;;;;5073035;28;20237;-76
2022/05/12 11:31:09;;;;;;;2.78;2.00;;;18.20;99.90;;;;;;5073388;28;20591;-76
2022/05/12 11:33:38;;;;;;;5.38;2.45;;;18.10;99.90;;;;;;5073103;28;20595;-76
2022/05/12 11:36:07;;;;;;;3.95;2.08;;;18.20;99.90;;;;;;5071810;28;20266;-76
2022/05/12 11:38:42;;;;;;;3.10;2.70;;;18.20;99.90;;;;;;5072904;28;20734;-76
2022/05/12 11:41:20;;;;;;;2.78;2.25;;;18.20;99.90;;;;;;5072998;28;20247;-76
2022/05/12 11:46:34;;;;;;;2.90;2.70;;;18.00;99.90;;;;;;5073000;28;20174;-76
2022/05/12 11:49:08;;;;;;;2.60;2.40;;;18.00;99.90;;;;;;5072896;28;20159;-76
2022/05/12 11:51:48;;;;;;;6.28;3.00;;;18.00;99.90;;;;;;5071706;28;20172;-76
2022/05/12 11:54:40;;;;;;;8.95;2.30;;;17.90;99.90;;;;;;5072864;28;20524;-76
2022/05/12 11:57:47;;;;;;;2.50;2.03;;;18.00;99.90;;;;;;5072785;28;20218;-76
2022/05/12 12:00:35;;;;;;;4.57;2.60;;;18.30;99.90;;;;;;5070278;28;20262;-76
2022/05/12 12:03:19;;;;;;;4.25;2.45;;;18.30;99.90;;;;;;5072708;28;20171;-76
2022/05/12 12:05:48;;;;;;;7.55;2.40;;;18.20;99.90;;;;;;5076542;28;20660;-76
2022/05/12 12:08:32;;;;;;;3.95;2.22;;;18.20;99.90;;;;;;5076474;28;20179;-76
2022/05/12 12:11:27;;;;;;;2.22;2.13;;;18.10;99.90;;;;;;5076220;28;20259;-76
2022/05/12 12:13:59;;;;;;;1.95;1.85;;;18.20;99.90;;;;;;5070641;28;20211;-76
2022/05/12 12:16:28;;;;;;;2.80;2.20;;;18.20;99.90;;;;;;5076104;28;20633;-76
2022/05/12 12:19:03;;;;;;;7.13;2.92;;;18.20;99.90;;;;;;5076287;28;20164;-76
2022/05/12 12:21:47;;;;;;;2.70;2.05;;;18.20;99.90;;;;;;5076261;28;20164;-76
2022/05/12 12:24:48;;;;;;;3.03;2.10;;;18.30;99.90;;;;;;5076506;28;20221;-76
2022/05/12 12:27:45;;;;;;;2.88;2.40;;;18.50;99.90;;;;;;5075717;28;20188;-76
2022/05/12 12:30:34;;;;;;;4.28;1.80;;;18.70;99.90;;;;;;5075305;28;20237;-76
2022/05/12 12:33:14;;;;;;;3.38;2.15;;;18.90;99.90;;;;;;5076092;28;20168;-76
2022/05/12 12:36:15;;;;;;;2.25;1.85;;;19.00;99.90;;;;;;5074711;28;20175;-76
2022/05/12 12:38:46;;;;;;;2.78;2.60;;;18.80;99.90;;;;;;5074584;28;20665;-76
2022/05/12 12:41:21;;;;;;;10.77;2.33;;;18.60;99.90;;;;;;5074519;28;20174;-76
2022/05/12 12:43:55;;;;;;;9.00;2.08;;;18.60;99.90;;;;;;5075900;28;20613;-76
2022/05/12 12:46:26;;;;;;;4.65;2.35;;;18.50;99.90;;;;;;5076318;28;20262;-76
2022/05/12 12:49:24;;;;;;;3.97;2.53;;;18.30;99.90;;;;;;5075788;28;20172;-76
2022/05/12 12:51:58;;;;;;;5.88;2.95;;;18.30;99.90;;;;;;5075123;28;20271;-76
2022/05/12 12:57:17;;;;;;;4.32;2.20;;;18.80;99.90;;;;;;5075791;28;20269;-76
2022/05/12 12:59:51;;;;;;;2.92;2.00;;;19.40;99.90;;;;;;5075583;28;20625;-76
2022/05/12 13:02:40;;;;;;;2.60;2.25;;;19.80;99.90;;;;;;5075575;28;20214;-76
2022/05/12 13:05:27;;;;;;;2.88;2.28;;;20.00;99.90;;;;;;5075475;28;20842;-76
2022/05/12 13:07:58;;;;;;;2.90;2.63;;;20.10;99.90;;;;;;5075355;28;20624;-76
2022/05/12 13:10:25;;;;;;;5.72;2.88;;;20.30;99.90;;;;;;5075437;28;20243;-76
2022/05/12 13:12:57;;;;;;;6.65;2.75;;;20.20;99.90;;;;;;5075374;28;20179;-76
2022/05/12 13:15:23;;;;;;;2.38;2.00;;;20.00;99.90;;;;;;5075106;28;20168;-76
2022/05/12 13:17:51;;;;;;;6.97;3.08;;;19.80;99.90;;;;;;5074919;28;20695;-76
2022/05/12 13:20:20;;;;;;;3.72;2.35;;;19.60;99.90;;;;;;5075177;28;20169;-76
2022/05/12 13:23:00;;;;;;;4.95;2.45;;;19.50;99.90;;;;;;5075085;28;20207;-76
2022/05/12 13:25:29;;;;;;;3.45;2.63;;;19.50;99.90;;;;;;5075025;28;20191;-76
2022/05/12 13:27:56;;;;;;;2.95;2.70;;;19.50;99.90;;;;;;5075021;28;20172;-76
2022/05/12 13:30:28;;;;;;;8.23;2.50;;;19.50;99.90;;;;;;5074972;28;20183;-76
2022/05/12 13:33:02;;;;;;;6.25;2.92;;;19.50;99.90;;;;;;5074990;28;20172;-76
2022/05/12 13:35:29;;;;;;;2.53;2.38;;;19.70;99.90;;;;;;5074890;28;20246;-76
2022/05/12 13:38:06;;;;;;;4.25;2.50;;;19.70;99.90;;;;;;5074778;28;20183;-76
2022/05/12 13:40:40;;;;;;;5.50;2.75;;;19.80;99.90;;;;;;5074613;28;20171;-75
2022/05/12 13:43:39;;;;;;;3.28;2.55;;;19.60;99.90;;;;;;5074836;28;20246;-75
2022/05/12 13:46:22;;;;;;;3.80;3.15;;;19.30;99.90;;;;;;5074454;28;20194;-76
2022/05/12 13:48:58;;;;;;;2.78;2.58;;;19.10;99.90;;;;;;5074734;28;20195;-75
2022/05/12 13:51:39;;;;;;;5.47;2.78;;;19.20;99.90;;;;;;5074706;28;20171;-75
2022/05/12 13:54:08;;;;;;;3.92;2.60;;;19.30;99.90;;;;;;5074849;28;20178;-75
2022/05/12 13:56:36;;;;;;;12.35;2.80;;;19.30;99.90;;;;;;5075549;28;20160;-76
2022/05/12 13:59:28;;;;;;;6.60;2.53;;;19.50;99.90;;;;;;5074259;28;20164;-76
2022/05/12 14:02:14;;;;;;;6.18;2.40;;;19.60;99.90;;;;;;5073454;28;20518;-75
2022/05/12 14:04:41;;;;;;;6.57;2.78;;;19.70;99.90;;;;;;5072936;28;20179;-74
2022/05/12 14:07:11;;;;;;;2.50;2.30;;;19.80;99.90;;;;;;5074482;28;20182;-75
2022/05/12 14:09:55;;;;;;;8.35;2.80;;;19.70;99.90;;;;;;5074445;28;20172;-74
2022/05/12 14:12:29;;;;;;;2.80;2.60;;;19.80;99.90;;;;;;5074346;28;20175;-74
2022/05/12 14:21:01;;;;;;;3.53;2.30;;;20.00;99.90;;;;;;5074013;28;20651;-74
2022/05/12 14:23:26;;;;;;;3.60;3.10;;;20.00;99.90;;;;;;5074170;28;20164;-74
2022/05/12 14:25:52;;;;;;;4.68;2.42;;;19.90;99.90;;;;;;5073675;28;20211;-74
2022/05/12 14:28:17;;;;;;;2.67;2.13;;;20.00;99.90;;;;;;5073706;28;20164;-74
2022/05/12 14:30:43;;;;;;;3.95;2.50;;;20.00;99.90;;;;;;5074143;28;20164;-74
2022/05/12 14:33:09;;;;;;;3.05;2.75;;;20.10;99.90;;;;;;5074059;28;20186;-74
2022/05/12 14:35:34;;;;;;;4.35;2.15;;;20.20;99.90;;;;;;5074052;28;20176;-74
2022/05/12 14:38:01;;;;;;;4.30;2.50;;;20.30;99.90;;;;;;5074011;28;20207;-74
2022/05/12 14:40:27;;;;;;;4.28;2.22;;;20.40;99.90;;;;;;5074160;28;20713;-75
2022/05/12 14:42:53;;;;;;;2.92;2.70;;;20.20;99.90;;;;;;5073814;28;20175;-74
2022/05/12 14:45:20;;;;;;;4.63;2.80;;;20.10;99.90;;;;;;5073990;28;20175;-74
2022/05/12 14:47:53;;;;;;;3.17;2.80;;;20.10;99.90;;;;;;5073691;28;20576;-74
2022/05/12 14:50:20;;;;;;;4.28;2.40;;;20.30;99.90;;;;;;5073477;28;20167;-75
2022/05/12 14:52:46;;;;;;;3.20;2.53;;;20.50;99.90;;;;;;5073809;28;20245;-75
2022/05/12 14:55:12;;;;;;;3.13;2.33;;;20.70;99.90;;;;;;5072414;28;20659;-74
2022/05/12 14:57:39;;;;;;;4.88;2.80;;;20.90;99.90;;;;;;5072441;28;20599;-75
2022/05/12 15:00:11;;;;;;;2.45;2.25;;;21.40;99.90;;;;;;5073656;28;20194;-75
2022/05/12 15:02:40;;;;;;;3.58;2.72;;;21.30;99.90;;;;;;5072352;28;20199;-74
2022/05/12 15:05:08;;;;;;;4.22;2.38;;;21.50;99.90;;;;;;5073585;28;20637;-75
2022/05/12 15:07:36;;;;;;;4.38;2.80;;;21.30;99.90;;;;;;5072316;28;20604;-75
2022/05/12 15:10:04;;;;;;;3.80;2.13;;;20.90;99.90;;;;;;5073537;28;20544;-76
2022/05/12 15:12:30;;;;;;;4.35;2.42;;;20.70;99.90;;;;;;5073525;28;20194;-76
2022/05/12 15:14:56;;;;;;;3.67;2.25;;;20.70;99.90;;;;;;5073410;28;20621;-74
2022/05/12 15:17:27;;;;;;;5.88;2.20;;;20.70;99.90;;;;;;5073240;28;20230;-73
2022/05/12 15:19:53;;;;;;;4.18;2.00;;;20.90;99.90;;;;;;5073767;28;20582;-79
2022/05/12 15:22:19;;;;;;;2.40;2.03;;;21.10;99.90;;;;;;5073315;28;20160;-74
2022/05/12 15:24:47;;;;;;;8.93;2.60;;;21.20;99.90;;;;;;5072220;28;20187;-75
2022/05/12 15:27:14;;;;;;;8.68;2.30;;;21.00;99.90;;;;;;5073529;28;20167;-76
2022/05/12 15:29:45;;;;;;;2.53;2.30;;;20.70;99.90;;;;;;5072113;28;20190;-75
2022/05/12 15:32:11;;;;;;;4.18;2.00;;;20.40;99.90;;;;;;5073394;28;20175;-76
2022/05/12 15:34:37;;;;;;;1.95;1.75;;;20.40;99.90;;;;;;5072610;28;20530;-76
2022/05/12 15:37:03;;;;;;;1.88;1.60;;;20.40;99.90;;;;;;5071275;28;20192;-76
2022/05/12 15:39:28;;;;;;;2.30;2.10;;;20.40;99.90;;;;;;5074711;28;20500;-75
2022/05/12 15:41:54;;;;;;;3.17;2.20;;;20.00;99.90;;;;;;5075645;28;20168;-75
2022/05/12 15:44:20;;;;;;;1.92;1.83;;;20.00;99.90;;;;;;5076748;28;20188;-75
2022/05/12 15:46:51;;;;;;;4.18;2.65;;;20.10;99.90;;;;;;5077031;28;20168;-76
2022/05/12 15:49:21;;;;;;;5.03;2.65;;;20.10;99.90;;;;;;5077115;28;20164;-75
2022/05/12 15:51:47;;;;;;;3.78;2.20;;;20.00;99.90;;;;;;5076998;28;20160;-76
2022/05/12 15:54:13;;;;;;;2.85;2.20;;;20.00;99.90;;;;;;5075734;28;20172;-75
2022/05/12 15:56:39;;;;;;;4.35;2.13;;;19.90;99.90;;;;;;5075656;28;20278;-74
2022/05/12 15:59:05;;;;;;;1.92;1.83;;;19.80;99.90;;;;;;5076824;28;20160;-75
2022/05/12 16:02:10;;;;;;;7.50;2.20;;;19.70;99.90;;;;;;5076744;28;20160;-75
2022/05/12 16:04:35;;;;;;;2.10;1.70;;;19.50;99.90;;;;;;5075455;28;20263;-72
2022/05/12 16:07:02;;;;;;;7.20;1.90;;;19.50;99.90;;;;;;5076586;28;20266;-70
2022/05/12 16:09:27;;;;;;;3.78;2.10;;;19.60;99.90;;;;;;5075316;28;20186;-71
2022/05/12 16:14:33;;;;;;;4.38;1.90;;;19.50;99.90;;;;;;5076376;28;20651;-74
2022/05/12 16:16:59;;;;;;;2.53;2.22;;;19.60;99.90;;;;;;5075176;28;20234;-74
2022/05/12 16:19:25;;;;;;;3.92;2.42;;;19.70;99.90;;;;;;5076600;28;20217;-70
2022/05/12 16:21:51;;;;;;;4.88;2.35;;;19.60;99.90;;;;;;5076629;28;20176;-70
2022/05/12 16:24:17;;;;;;;2.75;2.40;;;19.40;99.90;;;;;;5076471;28;20620;-70
2022/05/12 16:26:48;;;;;;;5.35;2.55;;;19.50;99.90;;;;;;5076471;28;20254;-70
2022/05/12 16:29:22;;;;;;;3.30;2.50;;;19.40;99.90;;;;;;5076370;28;20168;-70
2022/05/12 16:31:48;;;;;;;1.70;1.60;;;19.40;99.90;;;;;;5076326;28;20567;-70
2022/05/12 16:34:14;;;;;;;2.53;1.80;;;19.10;99.90;;;;;;5076372;28;20246;-70
2022/05/12 16:36:40;;;;;;;3.88;1.88;;;19.00;99.90;;;;;;5076056;28;20506;-70
2022/05/12 16:39:06;;;;;;;1.90;1.77;;;18.80;99.90;;;;;;5074936;28;20179;-70
2022/05/12 16:41:32;;;;;;;2.30;1.90;;;18.70;99.90;;;;;;5076033;28;20171;-70
2022/05/12 16:43:57;;;;;;;1.88;1.77;;;18.70;99.90;;;;;;5076018;28;20179;-70
2022/05/12 16:46:23;;;;;;;1.80;1.70;;;18.60;99.90;;;;;;5076040;28;20545;-70
2022/05/12 16:48:51;;;;;;;5.30;2.85;;;18.60;99.90;;;;;;5074657;28;20178;-71
2022/05/12 16:51:19;;;;;;;6.78;2.00;;;18.60;99.90;;;;;;5075807;28;20254;-70
2022/05/12 16:53:44;;;;;;;1.98;1.83;;;18.50;99.90;;;;;;5075856;28;20200;-71
2022/05/12 16:56:10;;;;;;;2.70;2.50;;;18.50;99.90;;;;;;5075889;28;20641;-70
2022/05/12 16:58:36;;;;;;;6.85;2.05;;;18.50;99.90;;;;;;5075691;28;20228;-73
2022/05/12 17:01:02;;;;;;;2.75;1.75;;;18.50;99.90;;;;;;5075870;28;20529;-72
2022/05/12 17:03:29;;;;;;;2.08;1.98;;;18.50;99.90;;;;;;5075832;28;20247;-72
2022/05/12 17:05:56;;;;;;;2.08;1.98;;;18.50;99.90;;;;;;5075822;28;20207;-72
2022/05/12 17:08:24;;;;;;;2.63;1.88;;;18.60;99.90;;;;;;5075618;28;20180;-72
2022/05/12 17:10:50;;;;;;;3.13;2.22;;;18.80;99.90;;;;;;5074549;28;20198;-72
2022/05/12 17:13:15;;;;;;;2.25;2.05;;;18.90;99.90;;;;;;5075554;28;20214;-72
2022/05/12 17:15:41;;;;;;;4.65;1.80;;;19.10;99.90;;;;;;5075537;28;20172;-72
2022/05/12 17:18:07;;;;;;;1.92;1.80;;;19.10;99.90;;;;;;5075279;28;20234;-73
2022/05/12 17:20:33;;;;;;;3.60;2.08;;;19.00;99.90;;;;;;5075552;28;20518;-72
2022/05/12 17:22:58;;;;;;;13.45;2.33;;;19.10;99.90;;;;;;5075566;28;20535;-72
2022/05/12 17:25:24;;;;;;;2.30;2.00;;;19.10;99.90;;;;;;5075402;28;20175;-73
2022/05/12 17:27:50;;;;;;;2.08;1.98;;;19.10;99.90;;;;;;5075232;28;20247;-72
2022/05/12 17:30:18;;;;;;;3.90;2.63;;;18.90;99.90;;;;;;5075215;28;20523;-72
2022/05/12 17:32:44;;;;;;;3.25;2.00;;;18.60;99.90;;;;;;5075063;28;20176;-72
2022/05/12 17:35:10;;;;;;;3.47;2.42;;;18.50;99.90;;;;;;5075200;28;20175;-73
2022/05/12 17:37:38;;;;;;;2.63;2.30;;;18.30;99.90;;;;;;5073837;28;20317;-72
2022/05/12 17:40:12;;;;;;;5.90;2.70;;;18.30;99.90;;;;;;5075062;28;20171;-72
2022/05/12 17:43:10;;;;;;;2.95;2.20;;;18.20;99.90;;;;;;5075042;28;20261;-72
2022/05/12 17:45:37;;;;;;;2.95;2.22;;;18.20;99.90;;;;;;5078896;28;20252;-72
2022/05/12 17:48:03;;;;;;;6.15;2.00;;;18.10;99.90;;;;;;5078499;28;20164;-73
2022/05/12 17:50:30;;;;;;;2.25;2.00;;;17.90;99.90;;;;;;5074583;28;20172;-71
2022/05/12 17:52:56;;;;;;;3.13;2.78;;;17.90;99.90;;;;;;5076082;28;20196;-72
2022/05/12 17:55:21;;;;;;;3.20;2.22;;;17.80;99.90;;;;;;5075546;28;20261;-73
2022/05/12 17:57:47;;;;;;;2.72;2.08;;;17.80;99.90;;;;;;5073823;28;20188;-73
2022/05/12 18:00:17;;;;;;;2.88;2.42;;;17.80;99.90;;;;;;5072588;28;20570;-73
2022/05/12 18:02:42;;;;;;;2.78;2.45;;;17.80;99.90;;;;;;5071913;28;20179;-73
2022/05/12 18:05:11;;;;;;;2.00;1.90;;;17.70;99.90;;;;;;5072466;28;20259;-72
2022/05/12 18:07:36;;;;;;;5.65;3.55;;;17.70;99.90;;;;;;5073848;28;20508;-73
2022/05/12 18:10:03;;;;;;;2.03;1.83;;;17.70;99.90;;;;;;5073808;28;20221;-73
2022/05/12 18:12:29;;;;;;;2.72;2.40;;;17.90;99.90;;;;;;5073772;28;20214;-73
2022/05/12 18:14:55;;;;;;;3.45;2.55;;;17.90;99.90;;;;;;5073661;28;20176;-73
2022/05/12 18:17:21;;;;;;;2.25;2.05;;;18.00;99.90;;;;;;5073325;28;20234;-73
2022/05/12 18:19:46;;;;;;;6.80;2.95;;;18.00;99.90;;;;;;5073768;28;20190;-73
2022/05/12 18:22:12;;;;;;;7.43;2.42;;;18.10;99.90;;;;;;5073963;28;20176;-73
2022/05/12 18:24:39;;;;;;;3.67;2.15;;;18.20;99.90;;;;;;5072590;28;20206;-73
2022/05/12 18:27:06;;;;;;;3.45;2.22;;;18.50;99.90;;;;;;5073789;28;20164;-73
2022/05/12 18:29:32;;;;;;;5.43;3.47;;;18.80;99.90;;;;;;5073746;28;20173;-73
2022/05/12 18:31:57;;;;;;;3.05;2.17;;;19.00;99.90;;;;;;5072297;28;20197;-73
2022/05/12 18:34:24;;;;;;;7.18;2.20;;;19.00;99.90;;;;;;5073527;28;20190;-73
2022/05/12 18:36:50;;;;;;;2.83;2.30;;;18.80;99.90;;;;;;5073559;28;20225;-73
2022/05/12 18:39:16;;;;;;;5.70;2.25;;;18.80;99.90;;;;;;5073463;28;20171;-73
2022/05/12 18:41:42;;;;;;;5.80;2.00;;;18.80;99.90;;;;;;5073355;28;20159;-73
2022/05/12 18:44:08;;;;;;;3.13;2.47;;;18.80;99.90;;;;;;5073126;28;20626;-73
2022/05/12 18:46:37;;;;;;;3.13;2.28;;;18.70;99.90;;;;;;5073348;28;20175;-73
2022/05/12 18:49:03;;;;;;;3.95;2.00;;;18.70;99.90;;;;;;5073346;28;20164;-73
2022/05/12 18:51:30;;;;;;;2.38;2.28;;;18.50;99.90;;;;;;5073190;28;20168;-73
2022/05/12 18:53:56;;;;;;;2.55;2.35;;;18.30;99.90;;;;;;5073096;28;20172;-72
2022/05/12 18:56:22;;;;;;;2.33;2.10;;;18.10;99.90;;;;;;5073332;28;20167;-73
2022/05/12 18:58:48;;;;;;;3.08;2.22;;;17.90;99.90;;;;;;5073059;28;20242;-73
2022/05/12 19:01:14;;;;;;;8.00;2.95;;;17.60;99.90;;;;;;5072937;28;20630;-72
2022/05/12 19:03:42;;;;;;;5.10;2.15;;;17.40;99.90;;;;;;5073067;28;20247;-73
2022/05/12 19:06:08;;;;;;;4.65;2.30;;;17.10;99.90;;;;;;5073131;28;20164;-72
2022/05/12 19:08:33;;;;;;;4.43;2.47;;;17.00;99.90;;;;;;5073094;28;20225;-73
2022/05/12 19:11:02;;;;;;;4.78;2.15;;;16.90;99.90;;;;;;5073091;28;20237;-72
